createdAt,value
2023-05-05T00:03:15.803Z,18.17
2023-05-05T00:08:17.636Z,18.18
2023-05-05T00:13:20.283Z,18.14
2023-05-05T00:18:21.756Z,18.15
2023-05-05T00:23:23.108Z,18.24
2023-05-05T00:28:24.457Z,17.98
2023-05-05T00:33:25.860Z,17.78
2023-05-05T00:38:27.265Z,17.88
2023-05-05T00:43:29.015Z,17.46
2023-05-05T00:48:31.258Z,17.48
2023-05-05T00:53:32.892Z,17.32
2023-05-05T00:58:34.672Z,17.17
2023-05-05T01:03:37.424Z,17.15
2023-05-05T01:08:41.588Z,17.11
2023-05-05T01:14:06.015Z,17.04
2023-05-05T01:19:23.368Z,17.20
2023-05-05T01:24:34.264Z,16.91
2023-05-05T01:29:54.459Z,16.95
2023-05-05T01:35:02.042Z,17.13
2023-05-05T01:40:08.156Z,17.27
2023-05-05T01:45:11.293Z,17.44
2023-05-05T01:50:13.664Z,17.56
2023-05-05T01:55:17.937Z,17.77
2023-05-05T02:00:19.443Z,17.72
2023-05-05T02:05:22.966Z,17.63
2023-05-05T02:10:24.588Z,17.72
2023-05-05T02:15:27.663Z,17.64
2023-05-05T02:20:30.995Z,17.60
2023-05-05T02:25:36.782Z,17.65
2023-05-05T02:30:39.027Z,17.70
2023-05-05T02:35:41.541Z,17.68
2023-05-05T02:40:49.646Z,17.62
2023-05-05T02:45:51.308Z,17.48
2023-05-05T02:50:53.856Z,17.49
2023-05-05T02:56:12.950Z,17.31
2023-05-05T03:01:29.130Z,17.23
2023-05-05T03:06:36.366Z,17.03
2023-05-05T03:11:47.597Z,17.01
2023-05-05T03:16:49.588Z,16.81
2023-05-05T03:21:52.350Z,16.58
2023-05-05T03:26:53.866Z,16.73
2023-05-05T03:31:58.365Z,16.79
2023-05-05T03:37:00.328Z,16.74
2023-05-05T03:42:01.891Z,16.54
2023-05-05T03:47:06.556Z,16.59
2023-05-05T03:52:12.652Z,16.59
2023-05-05T03:57:16.618Z,16.67
2023-05-05T04:02:18.897Z,16.53
2023-05-05T04:07:23.522Z,16.46
2023-05-05T04:12:24.933Z,16.26
2023-05-05T04:17:26.540Z,16.14
2023-05-05T04:22:28.139Z,16.06
2023-05-05T04:27:30.278Z,15.98
2023-05-05T04:32:33.573Z,15.90
2023-05-05T04:37:35.093Z,16.05
2023-05-05T04:42:36.605Z,15.82
2023-05-05T04:47:39.182Z,15.98
2023-05-05T04:52:40.974Z,15.98
2023-05-05T04:57:42.934Z,16.15
2023-05-05T05:02:45.509Z,16.22
2023-05-05T05:07:47.315Z,15.99
2023-05-05T05:12:48.757Z,15.84
2023-05-05T05:17:50.433Z,16.15
2023-05-05T05:22:51.950Z,16.20
2023-05-05T05:33:04.391Z,16.36
2023-05-05T05:38:06.541Z,16.35
2023-05-05T05:43:08.432Z,16.55
2023-05-05T05:48:11.476Z,16.61
2023-05-05T05:53:13.103Z,16.75
2023-05-05T05:58:16.452Z,16.88
2023-05-05T06:03:18.166Z,16.92
2023-05-05T06:08:19.693Z,17.06
2023-05-05T06:13:26.248Z,17.15
2023-05-05T06:18:27.912Z,17.73
2023-05-05T06:23:29.377Z,17.74
2023-05-05T06:28:35.942Z,17.84
2023-05-05T06:33:37.299Z,18.05
2023-05-05T06:38:38.636Z,18.28
2023-05-05T06:43:39.979Z,18.58
2023-05-05T06:48:46.352Z,18.79
2023-05-05T06:53:47.762Z,19.03
2023-05-05T06:58:49.114Z,18.77
2023-05-05T07:03:50.959Z,18.87
2023-05-05T07:08:52.414Z,18.81
2023-05-05T07:13:53.792Z,18.98
2023-05-05T07:18:55.200Z,18.77
2023-05-05T07:23:56.797Z,19.05
2023-05-05T07:28:59.112Z,19.17
2023-05-05T07:34:00.590Z,19.17
2023-05-05T07:39:01.949Z,19.14
2023-05-05T07:44:03.364Z,19.18
2023-05-05T07:49:04.740Z,19.22
2023-05-05T07:54:06.238Z,19.33
2023-05-05T07:59:07.651Z,19.33
2023-05-05T08:04:09.096Z,19.65
2023-05-05T08:09:10.631Z,19.81
2023-05-05T08:14:11.988Z,20.10
2023-05-05T08:19:27.658Z,20.12
2023-05-05T08:24:30.805Z,20.11
2023-05-05T08:29:32.282Z,20.19
2023-05-05T08:34:33.745Z,20.15
2023-05-05T08:39:35.250Z,20.12
2023-05-05T08:44:36.898Z,20.38
2023-05-05T08:49:47.595Z,21.25
2023-05-05T08:54:57.723Z,21.20
2023-05-05T08:59:59.966Z,21.02
2023-05-05T09:05:05.048Z,21.10
2023-05-05T09:10:08.288Z,21.32
2023-05-05T09:15:10.637Z,21.38
2023-05-05T09:20:12.842Z,21.48
2023-05-05T09:25:15.108Z,21.87
2023-05-05T09:30:26.821Z,21.18
2023-05-05T09:35:28.372Z,21.25
2023-05-05T09:40:44.190Z,21.52
2023-05-05T09:45:46.477Z,21.59
2023-05-05T09:50:48.397Z,22.16
2023-05-05T09:56:08.089Z,22.22
2023-05-05T10:01:21.338Z,22.73
2023-05-05T10:06:38.962Z,22.85
2023-05-05T10:11:45.952Z,22.99
2023-05-05T10:16:51.587Z,22.46
2023-05-05T10:21:53.912Z,22.20
2023-05-05T10:26:56.526Z,22.43
2023-05-05T10:32:08.734Z,22.16
2023-05-05T10:37:19.609Z,22.20
2023-05-05T10:42:22.304Z,22.11
2023-05-05T10:47:24.262Z,21.80
2023-05-05T10:52:37.748Z,22.00
2023-05-05T10:57:40.443Z,21.90
2023-05-05T11:02:41.852Z,21.89
2023-05-05T11:07:47.092Z,21.74
2023-05-05T11:13:02.435Z,21.68
2023-05-05T11:18:07.471Z,21.63
2023-05-05T11:23:09.687Z,21.56
2023-05-05T11:28:12.676Z,21.34
2023-05-05T11:33:29.141Z,21.02
2023-05-05T11:38:30.554Z,20.83
2023-05-05T11:43:32.012Z,20.94
2023-05-05T11:48:43.376Z,20.87
2023-05-05T11:53:45.942Z,21.07
2023-05-05T11:59:05.956Z,21.28
2023-05-05T12:04:11.165Z,21.61
2023-05-05T12:09:15.411Z,21.81
2023-05-05T12:14:16.850Z,22.13
2023-05-05T12:19:18.235Z,22.14
2023-05-05T12:24:19.623Z,22.04
2023-05-05T12:29:25.240Z,22.14
2023-05-05T12:34:27.304Z,22.08
2023-05-05T12:39:36.252Z,22.03
2023-05-05T12:44:38.762Z,21.53
2023-05-05T12:49:50.235Z,21.62
2023-05-05T12:54:58.790Z,21.74
2023-05-05T13:00:12.219Z,21.70
2023-05-05T13:05:13.673Z,22.18
2023-05-05T13:10:15.249Z,22.50
2023-05-05T13:15:16.694Z,22.67
2023-05-05T13:20:18.087Z,22.44
2023-05-05T13:25:19.437Z,22.37
2023-05-05T13:30:20.917Z,22.56
2023-05-05T13:35:22.339Z,22.49
2023-05-05T13:40:25.771Z,22.08
2023-05-05T13:45:27.398Z,21.49
2023-05-05T13:50:29.050Z,21.67
2023-05-05T13:55:30.456Z,21.30
2023-05-05T14:00:32.540Z,21.03
2023-05-05T14:05:34.529Z,21.42
2023-05-05T14:10:36.237Z,21.51
2023-05-05T14:15:37.625Z,21.38
2023-05-05T14:20:38.983Z,20.80
2023-05-05T14:25:40.365Z,20.06
2023-05-05T14:30:41.911Z,19.85
2023-05-05T14:35:43.358Z,19.75
2023-05-05T14:40:44.760Z,19.68
2023-05-05T14:45:46.182Z,19.34
2023-05-05T14:50:47.971Z,18.95
2023-05-05T14:55:49.408Z,18.51
2023-05-05T15:00:52.576Z,18.70
2023-05-05T15:05:53.959Z,18.49
2023-05-05T15:10:55.366Z,18.77
2023-05-05T15:15:56.776Z,19.16
2023-05-05T15:20:58.136Z,18.91
2023-05-05T15:25:59.506Z,18.82
2023-05-05T15:31:03.557Z,19.82
2023-05-05T15:36:05.138Z,19.52
2023-05-05T15:41:06.934Z,19.31
2023-05-05T15:46:08.300Z,19.07
2023-05-05T15:51:11.201Z,18.92
2023-05-05T15:56:12.608Z,18.70
2023-05-05T16:01:14.047Z,18.60
2023-05-05T16:06:15.596Z,18.44
2023-05-05T16:11:17.028Z,18.35
2023-05-05T16:16:18.448Z,18.05
2023-05-05T16:21:19.888Z,17.66
2023-05-05T16:26:21.279Z,17.54
2023-05-05T16:31:22.698Z,17.52
2023-05-05T16:36:24.242Z,17.66
2023-05-05T16:41:28.877Z,17.00
2023-05-05T16:46:30.307Z,16.72
2023-05-05T16:51:31.737Z,16.82
2023-05-05T16:56:33.092Z,16.80
2023-05-05T17:01:34.868Z,16.48
2023-05-05T17:06:36.458Z,16.79
2023-05-05T17:11:37.896Z,17.04
2023-05-05T17:16:39.355Z,17.23
2023-05-05T17:21:42.690Z,16.21
2023-05-05T17:26:44.075Z,16.03
2023-05-05T17:31:48.386Z,16.00
2023-05-05T17:36:49.846Z,15.94
2023-05-05T17:41:51.499Z,15.70
2023-05-05T17:46:52.930Z,15.94
2023-05-05T17:51:54.279Z,15.83
2023-05-05T17:56:55.635Z,15.76
2023-05-05T18:01:56.990Z,16.00
2023-05-05T18:06:58.360Z,16.15
2023-05-05T18:11:59.713Z,16.20
2023-05-05T18:17:01.227Z,16.14
2023-05-05T18:22:02.638Z,16.22
2023-05-05T18:27:05.334Z,16.26
2023-05-05T18:32:06.780Z,16.29
2023-05-05T18:37:08.259Z,16.34
2023-05-05T18:42:09.772Z,16.43
2023-05-05T18:47:11.327Z,16.23
2023-05-05T18:52:13.472Z,16.18
2023-05-05T18:57:14.900Z,16.11
2023-05-05T19:02:16.957Z,16.21
2023-05-05T19:07:27.526Z,16.13
2023-05-05T19:12:33.054Z,15.98
2023-05-05T19:17:34.472Z,16.06
2023-05-05T19:22:35.963Z,15.95
2023-05-05T19:27:37.502Z,15.93
2023-05-05T19:32:39.017Z,16.04
2023-05-05T19:37:40.617Z,15.97
2023-05-05T19:42:42.057Z,15.92
2023-05-05T19:47:43.494Z,15.62
2023-05-05T19:52:44.845Z,15.54
2023-05-05T19:57:46.155Z,15.56
2023-05-05T20:02:48.925Z,15.65
2023-05-05T20:07:50.787Z,15.51
2023-05-05T20:12:52.357Z,15.66
2023-05-05T20:17:53.819Z,15.55
2023-05-05T20:22:55.261Z,15.46
2023-05-05T20:27:56.627Z,15.61
2023-05-05T20:32:58.070Z,15.48
2023-05-05T20:37:59.462Z,15.45
2023-05-05T20:43:00.942Z,15.58
2023-05-05T20:48:03.353Z,15.39
2023-05-05T20:53:05.558Z,15.47
2023-05-05T20:58:07.360Z,15.36
2023-05-05T21:03:08.838Z,15.35
2023-05-05T21:08:10.255Z,15.25
2023-05-05T21:13:11.720Z,15.00
2023-05-05T21:18:13.085Z,15.24
2023-05-05T21:23:14.445Z,15.23
2023-05-05T21:28:15.948Z,15.00
2023-05-05T21:33:17.458Z,15.21
2023-05-05T21:38:18.816Z,15.22
2023-05-05T21:43:20.159Z,15.10
2023-05-05T21:48:21.500Z,15.02
2023-05-05T21:53:23.259Z,15.26
2023-05-05T21:58:25.048Z,15.16
2023-05-05T22:03:26.773Z,15.05
2023-05-05T22:08:28.401Z,15.01
2023-05-05T22:13:29.777Z,14.99
2023-05-05T22:18:31.189Z,14.72
2023-05-05T22:23:32.639Z,14.62
2023-05-05T22:28:33.996Z,14.49
2023-05-05T22:33:36.029Z,14.68
2023-05-05T22:38:37.417Z,14.69
2023-05-05T22:43:38.951Z,14.64
2023-05-05T22:48:40.375Z,14.46
2023-05-05T22:53:41.771Z,14.43
2023-05-05T22:58:43.188Z,14.45
2023-05-05T23:03:44.532Z,14.37
2023-05-05T23:08:46.059Z,14.52
2023-05-05T23:13:47.459Z,14.57
2023-05-05T23:18:50.606Z,14.35
2023-05-05T23:23:51.945Z,14.55
2023-05-05T23:28:53.397Z,14.52
2023-05-05T23:33:54.712Z,14.31
2023-05-05T23:38:56.053Z,14.46
2023-05-05T23:43:57.397Z,14.50
2023-05-05T23:48:58.738Z,14.57
2023-05-05T23:54:00.147Z,14.40
2023-05-05T23:59:01.583Z,14.47
